sensor_id;sensor_type;location;lat;lon;timestamp;P1;durP1;ratioP1;P2;durP2;ratioP2
67528;SDS011;54366;51.980;5.856;2023-07-08T00:01:28;1.83;;;1.33;;
67528;SDS011;54366;51.980;5.856;2023-07-08T00:04:01;2.00;;;1.33;;
67528;SDS011;54366;51.980;5.856;2023-07-08T00:06:36;1.30;;;1.15;;
67528;SDS011;54366;51.980;5.856;2023-07-08T00:09:10;1.50;;;1.40;;
67528;SDS011;54366;51.980;5.856;2023-07-08T00:11:47;2.35;;;1.45;;
67528;SDS011;54366;51.980;5.856;2023-07-08T00:14:20;1.53;;;1.10;;
67528;SDS011;54366;51.980;5.856;2023-07-08T00:16:46;1.98;;;1.60;;
67528;SDS011;54366;51.980;5.856;2023-07-08T00:19:19;1.88;;;1.27;;
67528;SDS011;54366;51.980;5.856;2023-07-08T00:22:01;1.60;;;1.48;;
67528;SDS011;54366;51.980;5.856;2023-07-08T00:24:39;1.45;;;1.13;;
67528;SDS011;54366;51.980;5.856;2023-07-08T00:27:11;1.60;;;1.50;;
67528;SDS011;54366;51.980;5.856;2023-07-08T00:29:45;1.80;;;1.42;;
67528;SDS011;54366;51.980;5.856;2023-07-08T00:32:18;1.33;;;1.20;;
67528;SDS011;54366;51.980;5.856;2023-07-08T00:34:51;1.63;;;1.25;;
67528;SDS011;54366;51.980;5.856;2023-07-08T00:37:25;1.55;;;1.38;;
67528;SDS011;54366;51.980;5.856;2023-07-08T00:40:10;2.65;;;1.27;;
67528;SDS011;54366;51.980;5.856;2023-07-08T00:42:49;1.65;;;1.30;;
67528;SDS011;54366;51.980;5.856;2023-07-08T00:45:24;1.50;;;1.30;;
67528;SDS011;54366;51.980;5.856;2023-07-08T00:48:52;1.60;;;1.50;;
67528;SDS011;54366;51.980;5.856;2023-07-08T00:51:18;1.55;;;1.20;;
67528;SDS011;54366;51.980;5.856;2023-07-08T00:56:26;1.60;;;1.50;;
67528;SDS011;54366;51.980;5.856;2023-07-08T00:59:06;1.55;;;1.33;;
67528;SDS011;54366;51.980;5.856;2023-07-08T01:01:48;1.98;;;1.60;;
67528;SDS011;54366;51.980;5.856;2023-07-08T01:04:25;1.50;;;1.40;;
67528;SDS011;54366;51.980;5.856;2023-07-08T01:07:04;1.85;;;1.33;;
67528;SDS011;54366;51.980;5.856;2023-07-08T01:09:40;2.00;;;1.48;;
67528;SDS011;54366;51.980;5.856;2023-07-08T01:12:20;2.50;;;1.40;;
67528;SDS011;54366;51.980;5.856;2023-07-08T01:14:57;1.60;;;1.50;;
67528;SDS011;54366;51.980;5.856;2023-07-08T01:17:34;1.55;;;1.45;;
67528;SDS011;54366;51.980;5.856;2023-07-08T01:20:01;1.65;;;1.50;;
67528;SDS011;54366;51.980;5.856;2023-07-08T01:22:40;1.70;;;1.40;;
67528;SDS011;54366;51.980;5.856;2023-07-08T01:25:21;2.10;;;1.38;;
67528;SDS011;54366;51.980;5.856;2023-07-08T01:27:54;1.65;;;1.35;;
67528;SDS011;54366;51.980;5.856;2023-07-08T01:30:22;1.70;;;1.33;;
67528;SDS011;54366;51.980;5.856;2023-07-08T01:32:56;2.15;;;1.40;;
67528;SDS011;54366;51.980;5.856;2023-07-08T01:35:34;1.50;;;1.35;;
67528;SDS011;54366;51.980;5.856;2023-07-08T01:38:01;2.25;;;1.70;;
67528;SDS011;54366;51.980;5.856;2023-07-08T01:40:46;1.30;;;1.20;;
67528;SDS011;54366;51.980;5.856;2023-07-08T01:43:22;2.38;;;1.65;;
67528;SDS011;54366;51.980;5.856;2023-07-08T01:45:55;1.88;;;1.35;;
67528;SDS011;54366;51.980;5.856;2023-07-08T01:48:33;1.88;;;1.50;;
67528;SDS011;54366;51.980;5.856;2023-07-08T01:51:10;1.52;;;1.42;;
67528;SDS011;54366;51.980;5.856;2023-07-08T01:53:40;1.95;;;1.60;;
67528;SDS011;54366;51.980;5.856;2023-07-08T01:56:14;1.23;;;1.13;;
67528;SDS011;54366;51.980;5.856;2023-07-08T02:01:21;1.77;;;1.50;;
67528;SDS011;54366;51.980;5.856;2023-07-08T02:03:54;1.37;;;1.27;;
67528;SDS011;54366;51.980;5.856;2023-07-08T02:06:20;2.33;;;1.67;;
67528;SDS011;54366;51.980;5.856;2023-07-08T02:08:53;1.50;;;1.30;;
67528;SDS011;54366;51.980;5.856;2023-07-08T02:11:28;1.95;;;1.63;;
67528;SDS011;54366;51.980;5.856;2023-07-08T02:14:01;1.60;;;1.27;;
67528;SDS011;54366;51.980;5.856;2023-07-08T02:16:36;3.38;;;1.73;;
67528;SDS011;54366;51.980;5.856;2023-07-08T02:19:02;1.92;;;1.60;;
67528;SDS011;54366;51.980;5.856;2023-07-08T02:21:41;1.50;;;1.40;;
67528;SDS011;54366;51.980;5.856;2023-07-08T02:24:21;2.35;;;1.50;;
67528;SDS011;54366;51.980;5.856;2023-07-08T02:26:55;1.50;;;1.40;;
67528;SDS011;54366;51.980;5.856;2023-07-08T02:29:28;2.42;;;1.52;;
67528;SDS011;54366;51.980;5.856;2023-07-08T02:31:55;1.73;;;1.38;;
67528;SDS011;54366;51.980;5.856;2023-07-08T02:34:28;1.70;;;1.48;;
67528;SDS011;54366;51.980;5.856;2023-07-08T02:37:01;2.90;;;1.92;;
67528;SDS011;54366;51.980;5.856;2023-07-08T02:39:34;2.10;;;1.55;;
67528;SDS011;54366;51.980;5.856;2023-07-08T02:42:07;1.67;;;1.58;;
67528;SDS011;54366;51.980;5.856;2023-07-08T02:44:33;2.45;;;1.45;;
67528;SDS011;54366;51.980;5.856;2023-07-08T02:47:06;2.33;;;1.85;;
67528;SDS011;54366;51.980;5.856;2023-07-08T02:49:33;1.73;;;1.50;;
67528;SDS011;54366;51.980;5.856;2023-07-08T02:52:06;2.53;;;1.80;;
67528;SDS011;54366;51.980;5.856;2023-07-08T02:54:39;4.45;;;2.03;;
67528;SDS011;54366;51.980;5.856;2023-07-08T02:57:12;2.33;;;1.50;;
67528;SDS011;54366;51.980;5.856;2023-07-08T02:59:45;2.47;;;1.67;;
67528;SDS011;54366;51.980;5.856;2023-07-08T03:02:11;2.47;;;1.73;;
67528;SDS011;54366;51.980;5.856;2023-07-08T03:04:44;2.13;;;1.40;;
67528;SDS011;54366;51.980;5.856;2023-07-08T03:09:51;1.67;;;1.30;;
67528;SDS011;54366;51.980;5.856;2023-07-08T03:12:24;2.00;;;1.60;;
67528;SDS011;54366;51.980;5.856;2023-07-08T03:14:50;1.95;;;1.50;;
67528;SDS011;54366;51.980;5.856;2023-07-08T03:17:23;1.90;;;1.70;;
67528;SDS011;54366;51.980;5.856;2023-07-08T03:19:56;1.88;;;1.50;;
67528;SDS011;54366;51.980;5.856;2023-07-08T03:22:36;1.70;;;1.60;;
67528;SDS011;54366;51.980;5.856;2023-07-08T03:25:11;2.50;;;1.60;;
67528;SDS011;54366;51.980;5.856;2023-07-08T03:27:43;2.08;;;1.80;;
67528;SDS011;54366;51.980;5.856;2023-07-08T03:30:16;3.47;;;1.83;;
67528;SDS011;54366;51.980;5.856;2023-07-08T03:32:44;3.88;;;1.95;;
67528;SDS011;54366;51.980;5.856;2023-07-08T03:35:17;2.20;;;2.03;;
67528;SDS011;54366;51.980;5.856;2023-07-08T03:37:50;2.05;;;1.63;;
67528;SDS011;54366;51.980;5.856;2023-07-08T03:40:24;1.85;;;1.65;;
67528;SDS011;54366;51.980;5.856;2023-07-08T03:42:57;1.88;;;1.42;;
67528;SDS011;54366;51.980;5.856;2023-07-08T03:45:26;2.10;;;1.73;;
67528;SDS011;54366;51.980;5.856;2023-07-08T03:47:59;1.90;;;1.42;;
67528;SDS011;54366;51.980;5.856;2023-07-08T03:50:32;1.50;;;1.40;;
67528;SDS011;54366;51.980;5.856;2023-07-08T03:53:05;1.92;;;1.60;;
67528;SDS011;54366;51.980;5.856;2023-07-08T03:55:38;2.45;;;1.90;;
67528;SDS011;54366;51.980;5.856;2023-07-08T03:58:11;2.17;;;1.40;;
67528;SDS011;54366;51.980;5.856;2023-07-08T04:00:44;1.83;;;1.70;;
67528;SDS011;54366;51.980;5.856;2023-07-08T04:03:18;1.23;;;1.13;;
67528;SDS011;54366;51.980;5.856;2023-07-08T04:05:51;2.90;;;1.90;;
67528;SDS011;54366;51.980;5.856;2023-07-08T04:08:24;1.65;;;1.55;;
67528;SDS011;54366;51.980;5.856;2023-07-08T04:10:57;1.85;;;1.60;;
67528;SDS011;54366;51.980;5.856;2023-07-08T04:13:30;2.03;;;1.30;;
67528;SDS011;54366;51.980;5.856;2023-07-08T04:16:04;1.55;;;1.45;;
67528;SDS011;54366;51.980;5.856;2023-07-08T04:18:32;5.03;;;1.73;;
67528;SDS011;54366;51.980;5.856;2023-07-08T04:21:05;1.60;;;1.50;;
67528;SDS011;54366;51.980;5.856;2023-07-08T04:23:38;2.05;;;1.50;;
67528;SDS011;54366;51.980;5.856;2023-07-08T04:26:11;2.33;;;1.55;;
67528;SDS011;54366;51.980;5.856;2023-07-08T04:28:37;1.80;;;1.60;;
67528;SDS011;54366;51.980;5.856;2023-07-08T04:31:10;1.70;;;1.60;;
67528;SDS011;54366;51.980;5.856;2023-07-08T04:33:43;1.77;;;1.60;;
67528;SDS011;54366;51.980;5.856;2023-07-08T04:36:16;2.33;;;1.42;;
67528;SDS011;54366;51.980;5.856;2023-07-08T04:38:49;3.25;;;1.85;;
67528;SDS011;54366;51.980;5.856;2023-07-08T04:41:22;2.58;;;1.73;;
67528;SDS011;54366;51.980;5.856;2023-07-08T04:43:55;2.78;;;2.15;;
67528;SDS011;54366;51.980;5.856;2023-07-08T04:46:36;2.70;;;1.70;;
67528;SDS011;54366;51.980;5.856;2023-07-08T04:49:12;2.05;;;1.83;;
67528;SDS011;54366;51.980;5.856;2023-07-08T04:51:45;1.73;;;1.48;;
67528;SDS011;54366;51.980;5.856;2023-07-08T04:54:12;2.03;;;1.70;;
67528;SDS011;54366;51.980;5.856;2023-07-08T04:56:46;2.60;;;1.90;;
67528;SDS011;54366;51.980;5.856;2023-07-08T04:59:22;3.10;;;1.42;;
67528;SDS011;54366;51.980;5.856;2023-07-08T05:01:56;2.45;;;1.90;;
67528;SDS011;54366;51.980;5.856;2023-07-08T05:04:29;1.60;;;1.48;;
67528;SDS011;54366;51.980;5.856;2023-07-08T05:07:02;2.85;;;1.48;;
67528;SDS011;54366;51.980;5.856;2023-07-08T05:09:35;1.70;;;1.50;;
67528;SDS011;54366;51.980;5.856;2023-07-08T05:12:08;1.58;;;1.48;;
67528;SDS011;54366;51.980;5.856;2023-07-08T05:14:34;2.05;;;1.35;;
67528;SDS011;54366;51.980;5.856;2023-07-08T05:17:07;1.65;;;1.55;;
67528;SDS011;54366;51.980;5.856;2023-07-08T05:19:40;2.78;;;1.80;;
67528;SDS011;54366;51.980;5.856;2023-07-08T05:22:13;2.40;;;1.70;;
67528;SDS011;54366;51.980;5.856;2023-07-08T05:24:57;2.97;;;1.60;;
67528;SDS011;54366;51.980;5.856;2023-07-08T05:27:23;1.90;;;1.60;;
67528;SDS011;54366;51.980;5.856;2023-07-08T05:29:56;2.28;;;2.00;;
67528;SDS011;54366;51.980;5.856;2023-07-08T05:32:29;3.25;;;1.80;;
67528;SDS011;54366;51.980;5.856;2023-07-08T05:35:02;1.90;;;1.80;;
67528;SDS011;54366;51.980;5.856;2023-07-08T05:37:29;2.20;;;1.83;;
67528;SDS011;54366;51.980;5.856;2023-07-08T05:40:02;2.05;;;1.80;;
67528;SDS011;54366;51.980;5.856;2023-07-08T05:45:09;1.60;;;1.50;;
67528;SDS011;54366;51.980;5.856;2023-07-08T05:47:42;2.15;;;1.70;;
67528;SDS011;54366;51.980;5.856;2023-07-08T05:50:15;2.42;;;1.75;;
67528;SDS011;54366;51.980;5.856;2023-07-08T05:52:41;2.20;;;2.00;;
67528;SDS011;54366;51.980;5.856;2023-07-08T05:55:14;2.08;;;1.60;;
67528;SDS011;54366;51.980;5.856;2023-07-08T05:57:47;2.03;;;1.80;;
67528;SDS011;54366;51.980;5.856;2023-07-08T06:00:20;1.77;;;1.67;;
67528;SDS011;54366;51.980;5.856;2023-07-08T06:02:46;2.30;;;1.70;;
67528;SDS011;54366;51.980;5.856;2023-07-08T06:05:19;2.00;;;1.80;;
67528;SDS011;54366;51.980;5.856;2023-07-08T06:07:52;2.30;;;1.63;;
67528;SDS011;54366;51.980;5.856;2023-07-08T06:10:25;2.53;;;1.85;;
67528;SDS011;54366;51.980;5.856;2023-07-08T06:12:58;1.75;;;1.63;;
67528;SDS011;54366;51.980;5.856;2023-07-08T06:15:24;2.28;;;1.73;;
67528;SDS011;54366;51.980;5.856;2023-07-08T06:17:57;2.60;;;2.05;;
67528;SDS011;54366;51.980;5.856;2023-07-08T06:20:38;3.33;;;2.15;;
67528;SDS011;54366;51.980;5.856;2023-07-08T06:23:11;3.25;;;2.20;;
67528;SDS011;54366;51.980;5.856;2023-07-08T06:25:51;2.67;;;1.92;;
67528;SDS011;54366;51.980;5.856;2023-07-08T06:28:24;2.67;;;1.70;;
67528;SDS011;54366;51.980;5.856;2023-07-08T06:30:50;1.67;;;1.58;;
67528;SDS011;54366;51.980;5.856;2023-07-08T06:33:23;2.78;;;1.88;;
67528;SDS011;54366;51.980;5.856;2023-07-08T06:35:56;4.25;;;2.20;;
67528;SDS011;54366;51.980;5.856;2023-07-08T06:38:29;2.03;;;1.92;;
67528;SDS011;54366;51.980;5.856;2023-07-08T06:40:55;2.00;;;1.80;;
67528;SDS011;54366;51.980;5.856;2023-07-08T06:43:28;2.75;;;2.47;;
67528;SDS011;54366;51.980;5.856;2023-07-08T06:46:16;3.50;;;2.17;;
67528;SDS011;54366;51.980;5.856;2023-07-08T06:48:49;3.00;;;2.13;;
67528;SDS011;54366;51.980;5.856;2023-07-08T06:51:22;2.30;;;2.00;;
67528;SDS011;54366;51.980;5.856;2023-07-08T06:53:48;1.75;;;1.65;;
67528;SDS011;54366;51.980;5.856;2023-07-08T06:56:21;3.03;;;2.10;;
67528;SDS011;54366;51.980;5.856;2023-07-08T06:58:47;2.63;;;2.33;;
67528;SDS011;54366;51.980;5.856;2023-07-08T07:01:20;2.53;;;1.80;;
67528;SDS011;54366;51.980;5.856;2023-07-08T07:03:53;2.37;;;2.00;;
67528;SDS011;54366;51.980;5.856;2023-07-08T07:06:19;2.63;;;2.10;;
67528;SDS011;54366;51.980;5.856;2023-07-08T07:08:52;2.10;;;1.90;;
67528;SDS011;54366;51.980;5.856;2023-07-08T07:11:25;3.90;;;2.38;;
67528;SDS011;54366;51.980;5.856;2023-07-08T07:13:58;2.20;;;2.00;;
67528;SDS011;54366;51.980;5.856;2023-07-08T07:16:31;3.00;;;2.30;;
67528;SDS011;54366;51.980;5.856;2023-07-08T07:19:04;2.90;;;2.33;;
67528;SDS011;54366;51.980;5.856;2023-07-08T07:21:43;2.22;;;2.00;;
67528;SDS011;54366;51.980;5.856;2023-07-08T07:24:23;2.60;;;2.40;;
67528;SDS011;54366;51.980;5.856;2023-07-08T07:26:56;2.43;;;2.20;;
67528;SDS011;54366;51.980;5.856;2023-07-08T07:29:23;2.40;;;1.98;;
67528;SDS011;54366;51.980;5.856;2023-07-08T07:31:56;3.08;;;2.25;;
67528;SDS011;54366;51.980;5.856;2023-07-08T07:34:29;2.78;;;2.08;;
67528;SDS011;54366;51.980;5.856;2023-07-08T07:37:02;2.67;;;2.38;;
67528;SDS011;54366;51.980;5.856;2023-07-08T07:39:35;2.72;;;2.10;;
67528;SDS011;54366;51.980;5.856;2023-07-08T07:42:08;6.10;;;2.10;;
67528;SDS011;54366;51.980;5.856;2023-07-08T07:44:41;2.72;;;2.10;;
67528;SDS011;54366;51.980;5.856;2023-07-08T07:47:14;2.20;;;1.92;;
67528;SDS011;54366;51.980;5.856;2023-07-08T07:49:40;2.75;;;2.55;;
67528;SDS011;54366;51.980;5.856;2023-07-08T07:52:13;2.45;;;2.25;;
67528;SDS011;54366;51.980;5.856;2023-07-08T07:54:41;3.22;;;2.10;;
67528;SDS011;54366;51.980;5.856;2023-07-08T07:57:14;3.30;;;2.00;;
67528;SDS011;54366;51.980;5.856;2023-07-08T07:59:47;4.63;;;2.13;;
67528;SDS011;54366;51.980;5.856;2023-07-08T08:02:18;2.67;;;2.47;;
67528;SDS011;54366;51.980;5.856;2023-07-08T08:04:51;3.33;;;2.47;;
67528;SDS011;54366;51.980;5.856;2023-07-08T08:07:24;3.60;;;2.27;;
67528;SDS011;54366;51.980;5.856;2023-07-08T08:09:57;3.17;;;2.60;;
67528;SDS011;54366;51.980;5.856;2023-07-08T08:12:30;2.83;;;2.43;;
67528;SDS011;54366;51.980;5.856;2023-07-08T08:14:56;3.95;;;2.20;;
67528;SDS011;54366;51.980;5.856;2023-07-08T08:17:29;2.47;;;2.30;;
67528;SDS011;54366;51.980;5.856;2023-07-08T08:20:02;2.57;;;2.17;;
67528;SDS011;54366;51.980;5.856;2023-07-08T08:22:42;2.80;;;2.22;;
67528;SDS011;54366;51.980;5.856;2023-07-08T08:25:15;3.00;;;2.70;;
67528;SDS011;54366;51.980;5.856;2023-07-08T08:27:49;2.33;;;2.13;;
67528;SDS011;54366;51.980;5.856;2023-07-08T08:30:23;2.28;;;2.08;;
67528;SDS011;54366;51.980;5.856;2023-07-08T08:32:49;2.85;;;2.58;;
67528;SDS011;54366;51.980;5.856;2023-07-08T08:35:22;2.80;;;2.50;;
67528;SDS011;54366;51.980;5.856;2023-07-08T08:37:55;3.00;;;2.80;;
67528;SDS011;54366;51.980;5.856;2023-07-08T08:40:28;3.17;;;2.40;;
67528;SDS011;54366;51.980;5.856;2023-07-08T08:43:04;2.80;;;2.50;;
67528;SDS011;54366;51.980;5.856;2023-07-08T08:45:53;2.60;;;2.40;;
67528;SDS011;54366;51.980;5.856;2023-07-08T08:48:32;2.50;;;2.30;;
67528;SDS011;54366;51.980;5.856;2023-07-08T08:51:14;3.47;;;2.75;;
67528;SDS011;54366;51.980;5.856;2023-07-08T08:53:48;2.75;;;2.38;;
67528;SDS011;54366;51.980;5.856;2023-07-08T08:56:26;4.68;;;2.97;;
67528;SDS011;54366;51.980;5.856;2023-07-08T08:59:23;4.32;;;3.03;;
67528;SDS011;54366;51.980;5.856;2023-07-08T09:02:26;3.03;;;2.70;;
67528;SDS011;54366;51.980;5.856;2023-07-08T09:05:04;3.42;;;2.70;;
67528;SDS011;54366;51.980;5.856;2023-07-08T09:11:05;3.03;;;2.80;;
67528;SDS011;54366;51.980;5.856;2023-07-08T09:14:03;3.17;;;2.88;;
67528;SDS011;54366;51.980;5.856;2023-07-08T09:16:42;3.08;;;2.53;;
67528;SDS011;54366;51.980;5.856;2023-07-08T09:19:31;2.80;;;2.40;;
67528;SDS011;54366;51.980;5.856;2023-07-08T09:22:52;3.00;;;2.80;;
67528;SDS011;54366;51.980;5.856;2023-07-08T09:25:34;3.35;;;3.05;;
67528;SDS011;54366;51.980;5.856;2023-07-08T09:28:13;3.00;;;2.70;;
67528;SDS011;54366;51.980;5.856;2023-07-08T09:30:40;4.55;;;3.20;;
67528;SDS011;54366;51.980;5.856;2023-07-08T09:33:12;4.43;;;3.00;;
67528;SDS011;54366;51.980;5.856;2023-07-08T09:35:48;4.53;;;3.70;;
67528;SDS011;54366;51.980;5.856;2023-07-08T09:38:21;3.88;;;3.20;;
67528;SDS011;54366;51.980;5.856;2023-07-08T09:40:54;3.95;;;3.28;;
67528;SDS011;54366;51.980;5.856;2023-07-08T09:43:25;5.25;;;3.38;;
67528;SDS011;54366;51.980;5.856;2023-07-08T09:46:00;3.85;;;3.55;;
67528;SDS011;54366;51.980;5.856;2023-07-08T09:48:34;3.65;;;3.08;;
67528;SDS011;54366;51.980;5.856;2023-07-08T09:51:08;3.80;;;3.20;;
67528;SDS011;54366;51.980;5.856;2023-07-08T09:53:41;3.60;;;3.30;;
67528;SDS011;54366;51.980;5.856;2023-07-08T09:56:14;3.55;;;3.25;;
67528;SDS011;54366;51.980;5.856;2023-07-08T09:58:47;3.00;;;2.80;;
67528;SDS011;54366;51.980;5.856;2023-07-08T10:01:24;4.20;;;3.80;;
67528;SDS011;54366;51.980;5.856;2023-07-08T10:03:58;3.72;;;3.40;;
67528;SDS011;54366;51.980;5.856;2023-07-08T10:06:33;4.00;;;3.38;;
67528;SDS011;54366;51.980;5.856;2023-07-08T10:09:05;4.00;;;3.35;;
67528;SDS011;54366;51.980;5.856;2023-07-08T10:11:51;3.17;;;2.97;;
67528;SDS011;54366;51.980;5.856;2023-07-08T10:14:35;4.00;;;3.63;;
67528;SDS011;54366;51.980;5.856;2023-07-08T10:17:13;4.53;;;3.90;;
67528;SDS011;54366;51.980;5.856;2023-07-08T10:19:42;4.03;;;3.70;;
67528;SDS011;54366;51.980;5.856;2023-07-08T10:22:24;4.20;;;3.80;;
67528;SDS011;54366;51.980;5.856;2023-07-08T10:25:26;4.07;;;3.67;;
67528;SDS011;54366;51.980;5.856;2023-07-08T10:28:19;4.18;;;3.60;;
67528;SDS011;54366;51.980;5.856;2023-07-08T10:31:13;4.25;;;3.72;;
67528;SDS011;54366;51.980;5.856;2023-07-08T10:34:41;4.63;;;4.22;;
67528;SDS011;54366;51.980;5.856;2023-07-08T10:37:25;4.03;;;3.72;;
67528;SDS011;54366;51.980;5.856;2023-07-08T10:53:22;4.68;;;4.13;;
67528;SDS011;54366;51.980;5.856;2023-07-08T10:56:23;5.53;;;4.47;;
67528;SDS011;54366;51.980;5.856;2023-07-08T10:59:10;5.25;;;4.25;;
67528;SDS011;54366;51.980;5.856;2023-07-08T11:05:12;4.45;;;3.95;;
67528;SDS011;54366;51.980;5.856;2023-07-08T11:08:11;5.97;;;4.65;;
67528;SDS011;54366;51.980;5.856;2023-07-08T11:11:14;4.35;;;3.95;;
67528;SDS011;54366;51.980;5.856;2023-07-08T11:14:11;5.22;;;4.75;;
67528;SDS011;54366;51.980;5.856;2023-07-08T11:17:06;5.80;;;4.40;;
67528;SDS011;54366;51.980;5.856;2023-07-08T11:19:50;4.90;;;4.50;;
67528;SDS011;54366;51.980;5.856;2023-07-08T11:22:57;7.28;;;4.75;;
67528;SDS011;54366;51.980;5.856;2023-07-08T11:25:38;4.70;;;4.30;;
67528;SDS011;54366;51.980;5.856;2023-07-08T11:28:15;4.53;;;4.13;;
67528;SDS011;54366;51.980;5.856;2023-07-08T11:30:50;4.32;;;3.90;;
67528;SDS011;54366;51.980;5.856;2023-07-08T11:33:24;4.85;;;4.45;;
67528;SDS011;54366;51.980;5.856;2023-07-08T11:35:58;4.75;;;4.35;;
67528;SDS011;54366;51.980;5.856;2023-07-08T11:38:35;4.57;;;4.18;;
67528;SDS011;54366;51.980;5.856;2023-07-08T11:41:05;4.95;;;4.45;;
67528;SDS011;54366;51.980;5.856;2023-07-08T11:43:58;4.20;;;3.80;;
67528;SDS011;54366;51.980;5.856;2023-07-08T11:46:34;5.75;;;3.90;;
67528;SDS011;54366;51.980;5.856;2023-07-08T11:49:05;5.85;;;4.40;;
67528;SDS011;54366;51.980;5.856;2023-07-08T11:54:30;4.32;;;3.97;;
67528;SDS011;54366;51.980;5.856;2023-07-08T11:57:04;4.80;;;4.40;;
67528;SDS011;54366;51.980;5.856;2023-07-08T11:59:40;4.45;;;4.05;;
67528;SDS011;54366;51.980;5.856;2023-07-08T12:02:16;4.47;;;4.07;;
67528;SDS011;54366;51.980;5.856;2023-07-08T12:05:01;4.15;;;3.75;;
67528;SDS011;54366;51.980;5.856;2023-07-08T12:07:45;4.53;;;4.13;;
67528;SDS011;54366;51.980;5.856;2023-07-08T12:10:28;4.85;;;4.10;;
67528;SDS011;54366;51.980;5.856;2023-07-08T12:13:14;4.57;;;4.18;;
67528;SDS011;54366;51.980;5.856;2023-07-08T12:15:50;4.90;;;4.50;;
67528;SDS011;54366;51.980;5.856;2023-07-08T12:18:28;5.15;;;4.65;;
67528;SDS011;54366;51.980;5.856;2023-07-08T12:21:07;5.28;;;4.78;;
67528;SDS011;54366;51.980;5.856;2023-07-08T12:23:34;5.00;;;4.50;;
67528;SDS011;54366;51.980;5.856;2023-07-08T12:26:07;5.13;;;4.55;;
67528;SDS011;54366;51.980;5.856;2023-07-08T12:28:36;4.70;;;4.30;;
67528;SDS011;54366;51.980;5.856;2023-07-08T12:31:20;4.65;;;4.25;;
67528;SDS011;54366;51.980;5.856;2023-07-08T12:33:55;4.93;;;4.53;;
67528;SDS011;54366;51.980;5.856;2023-07-08T12:36:24;4.68;;;4.28;;
67528;SDS011;54366;51.980;5.856;2023-07-08T12:38:59;4.70;;;4.30;;
67528;SDS011;54366;51.980;5.856;2023-07-08T12:41:34;6.20;;;4.50;;
67528;SDS011;54366;51.980;5.856;2023-07-08T12:44:18;4.78;;;4.38;;
67528;SDS011;54366;51.980;5.856;2023-07-08T12:46:55;5.38;;;4.60;;
67528;SDS011;54366;51.980;5.856;2023-07-08T12:49:28;5.15;;;4.65;;
67528;SDS011;54366;51.980;5.856;2023-07-08T12:52:01;6.85;;;4.85;;
67528;SDS011;54366;51.980;5.856;2023-07-08T12:57:08;4.73;;;4.33;;
67528;SDS011;54366;51.980;5.856;2023-07-08T12:59:41;5.05;;;4.53;;
67528;SDS011;54366;51.980;5.856;2023-07-08T13:02:18;5.15;;;4.65;;
67528;SDS011;54366;51.980;5.856;2023-07-08T13:04:55;5.28;;;4.85;;
67528;SDS011;54366;51.980;5.856;2023-07-08T13:07:35;5.63;;;4.85;;
67528;SDS011;54366;51.980;5.856;2023-07-08T13:10:19;5.22;;;4.63;;
67528;SDS011;54366;51.980;5.856;2023-07-08T13:12:56;5.05;;;4.45;;
67528;SDS011;54366;51.980;5.856;2023-07-08T13:15:36;5.13;;;4.63;;
67528;SDS011;54366;51.980;5.856;2023-07-08T13:21:09;6.00;;;5.10;;
67528;SDS011;54366;51.980;5.856;2023-07-08T13:23:45;5.75;;;5.15;;
67528;SDS011;54366;51.980;5.856;2023-07-08T13:26:26;6.15;;;5.03;;
67528;SDS011;54366;51.980;5.856;2023-07-08T13:29:04;5.18;;;4.68;;
67528;SDS011;54366;51.980;5.856;2023-07-08T13:31:47;5.63;;;4.95;;
67528;SDS011;54366;51.980;5.856;2023-07-08T13:34:24;4.95;;;4.45;;
67528;SDS011;54366;51.980;5.856;2023-07-08T13:36:51;5.65;;;4.97;;
67528;SDS011;54366;51.980;5.856;2023-07-08T13:39:32;7.20;;;5.65;;
67528;SDS011;54366;51.980;5.856;2023-07-08T13:42:06;5.15;;;4.65;;
67528;SDS011;54366;51.980;5.856;2023-07-08T13:44:33;4.88;;;4.47;;
67528;SDS011;54366;51.980;5.856;2023-07-08T13:52:25;5.20;;;4.70;;
67528;SDS011;54366;51.980;5.856;2023-07-08T13:54:52;5.20;;;4.70;;
67528;SDS011;54366;51.980;5.856;2023-07-08T13:57:32;5.35;;;4.85;;
67528;SDS011;54366;51.980;5.856;2023-07-08T14:00:10;5.00;;;4.60;;
67528;SDS011;54366;51.980;5.856;2023-07-08T14:02:43;5.70;;;5.20;;
67528;SDS011;54366;51.980;5.856;2023-07-08T14:05:16;5.45;;;4.90;;
67528;SDS011;54366;51.980;5.856;2023-07-08T14:07:52;5.05;;;4.57;;
67528;SDS011;54366;51.980;5.856;2023-07-08T14:10:19;8.32;;;4.82;;
67528;SDS011;54366;51.980;5.856;2023-07-08T14:12:52;5.93;;;5.18;;
67528;SDS011;54366;51.980;5.856;2023-07-08T14:15:19;6.07;;;5.00;;
67528;SDS011;54366;51.980;5.856;2023-07-08T14:17:51;4.88;;;4.35;;
67528;SDS011;54366;51.980;5.856;2023-07-08T14:20:24;5.20;;;4.70;;
67528;SDS011;54366;51.980;5.856;2023-07-08T14:23:07;5.10;;;4.60;;
67528;SDS011;54366;51.980;5.856;2023-07-08T14:25:47;4.53;;;4.13;;
67528;SDS011;54366;51.980;5.856;2023-07-08T14:28:14;4.82;;;4.20;;
67528;SDS011;54366;51.980;5.856;2023-07-08T14:30:47;5.30;;;4.28;;
67528;SDS011;54366;51.980;5.856;2023-07-08T14:33:13;6.15;;;4.95;;
67528;SDS011;54366;51.980;5.856;2023-07-08T14:35:46;5.03;;;4.30;;
67528;SDS011;54366;51.980;5.856;2023-07-08T14:38:13;5.10;;;4.63;;
67528;SDS011;54366;51.980;5.856;2023-07-08T14:40:45;4.47;;;4.07;;
67528;SDS011;54366;51.980;5.856;2023-07-08T14:43:21;5.13;;;4.65;;
67528;SDS011;54366;51.980;5.856;2023-07-08T14:46:01;5.20;;;4.70;;
67528;SDS011;54366;51.980;5.856;2023-07-08T14:48:36;4.68;;;4.28;;
67528;SDS011;54366;51.980;5.856;2023-07-08T14:51:03;4.88;;;4.47;;
67528;SDS011;54366;51.980;5.856;2023-07-08T14:53:35;4.60;;;4.20;;
67528;SDS011;54366;51.980;5.856;2023-07-08T14:56:17;5.03;;;4.55;;
67528;SDS011;54366;51.980;5.856;2023-07-08T14:58:50;4.53;;;4.10;;
67528;SDS011;54366;51.980;5.856;2023-07-08T15:01:23;4.60;;;3.90;;
67528;SDS011;54366;51.980;5.856;2023-07-08T15:03:52;5.10;;;4.70;;
67528;SDS011;54366;51.980;5.856;2023-07-08T15:06:24;5.00;;;4.50;;
67528;SDS011;54366;51.980;5.856;2023-07-08T15:08:57;4.20;;;3.90;;
67528;SDS011;54366;51.980;5.856;2023-07-08T15:11:24;4.88;;;4.28;;
67528;SDS011;54366;51.980;5.856;2023-07-08T15:13:59;4.40;;;4.00;;
67528;SDS011;54366;51.980;5.856;2023-07-08T15:16:33;4.57;;;3.83;;
67528;SDS011;54366;51.980;5.856;2023-07-08T15:19:08;4.35;;;3.95;;
67528;SDS011;54366;51.980;5.856;2023-07-08T15:21:43;5.03;;;4.50;;
67528;SDS011;54366;51.980;5.856;2023-07-08T15:24:23;4.32;;;3.95;;
67528;SDS011;54366;51.980;5.856;2023-07-08T15:26:56;5.38;;;4.13;;
67528;SDS011;54366;51.980;5.856;2023-07-08T15:29:23;4.43;;;4.05;;
67528;SDS011;54366;51.980;5.856;2023-07-08T15:31:56;5.20;;;4.43;;
67528;SDS011;54366;51.980;5.856;2023-07-08T15:34:29;5.03;;;4.55;;
67528;SDS011;54366;51.980;5.856;2023-07-08T15:37:02;4.45;;;4.05;;
67528;SDS011;54366;51.980;5.856;2023-07-08T15:39:29;3.90;;;3.60;;
67528;SDS011;54366;51.980;5.856;2023-07-08T15:42:01;4.90;;;4.40;;
67528;SDS011;54366;51.980;5.856;2023-07-08T15:44:34;5.18;;;4.22;;
67528;SDS011;54366;51.980;5.856;2023-07-08T15:47:09;4.18;;;3.70;;
67528;SDS011;54366;51.980;5.856;2023-07-08T15:49:44;4.25;;;3.95;;
67528;SDS011;54366;51.980;5.856;2023-07-08T15:52:17;3.70;;;3.40;;
67528;SDS011;54366;51.980;5.856;2023-07-08T15:54:50;3.80;;;3.47;;
67528;SDS011;54366;51.980;5.856;2023-07-08T15:57:17;4.03;;;3.63;;
67528;SDS011;54366;51.980;5.856;2023-07-08T15:59:49;3.65;;;3.35;;
67528;SDS011;54366;51.980;5.856;2023-07-08T16:02:27;3.50;;;3.20;;
67528;SDS011;54366;51.980;5.856;2023-07-08T16:05:02;3.90;;;3.45;;
67528;SDS011;54366;51.980;5.856;2023-07-08T16:07:35;4.28;;;3.88;;
67528;SDS011;54366;51.980;5.856;2023-07-08T16:10:08;3.97;;;3.45;;
67528;SDS011;54366;51.980;5.856;2023-07-08T16:12:35;4.53;;;3.60;;
67528;SDS011;54366;51.980;5.856;2023-07-08T16:15:12;5.47;;;3.90;;
67528;SDS011;54366;51.980;5.856;2023-07-08T16:17:50;5.18;;;4.07;;
67528;SDS011;54366;51.980;5.856;2023-07-08T16:20:24;3.95;;;3.65;;